Time;durP1;ratioP1;P1;durP2;ratioP2;P2;SDS_P1;SDS_P2;PMS_P1;PMS_P2;Temp;Humidity;BMP_temperature;BMP_pressure;BME280_temperature;BME280_humidity;BME280_pressure;Samples;Min_cycle;Max_cycle;Signal;HPM_P1;HPM_P2
2023/04/12 00:00:26;;;;;;;5.28;2.65;;;14.10;95.50;;;;;;7398850;19;20262;-73
2023/04/12 00:02:53;;;;;;;8.05;2.83;;;14.10;95.30;;;;;;7403935;19;20014;-73
2023/04/12 00:05:25;;;;;;;6.90;2.45;;;14.00;95.10;;;;;;7398308;19;19918;-72
2023/04/12 00:07:52;;;;;;;6.18;1.80;;;13.90;95.10;;;;;;7403676;19;19923;-72
2023/04/12 00:10:18;;;;;;;6.60;2.20;;;14.00;95.00;;;;;;7400857;19;20348;-72
2023/04/12 00:12:45;;;;;;;5.78;2.25;;;14.00;94.50;;;;;;7406159;19;20235;-73
2023/04/12 00:15:11;;;;;;;7.28;2.50;;;13.90;94.60;;;;;;7349459;19;19915;-72
2023/04/12 00:17:37;;;;;;;5.75;2.78;;;14.00;94.60;;;;;;7404666;19;20271;-72
2023/04/12 00:20:11;;;;;;;6.00;1.60;;;13.90;94.50;;;;;;7402463;19;19922;-72
2023/04/12 00:22:37;;;;;;;4.90;2.05;;;13.90;94.00;;;;;;7406673;19;19929;-72
2023/04/12 00:25:03;;;;;;;5.60;1.73;;;13.90;93.50;;;;;;7403883;19;20379;-72
2023/04/12 00:27:30;;;;;;;4.30;1.90;;;13.90;93.30;;;;;;7404320;19;19978;-72
2023/04/12 00:29:56;;;;;;;7.13;1.48;;;13.90;93.10;;;;;;7406538;19;19915;-73
2023/04/12 00:32:22;;;;;;;5.28;1.50;;;14.00;92.60;;;;;;7402644;19;19959;-72
2023/04/12 00:34:48;;;;;;;6.10;1.65;;;14.00;92.20;;;;;;7406004;19;19975;-72
2023/04/12 00:37:14;;;;;;;3.65;1.13;;;14.00;91.80;;;;;;7403487;19;19911;-72
2023/04/12 00:39:40;;;;;;;6.85;1.33;;;13.90;91.50;;;;;;7406061;19;20011;-72
2023/04/12 00:42:06;;;;;;;4.32;1.20;;;13.80;91.00;;;;;;7402277;19;19914;-71
2023/04/12 00:44:32;;;;;;;4.13;1.20;;;13.90;90.40;;;;;;7404940;19;19911;-72
2023/04/12 00:46:58;;;;;;;;;;;13.90;87.60;;;;;;7407860;19;19918;-72
2023/04/12 00:49:29;;;;;;;3.50;1.23;;;14.00;87.60;;;;;;7401738;19;19942;-72
2023/04/12 00:52:03;;;;;;;3.40;1.13;;;14.10;87.30;;;;;;7406420;19;19938;-72
2023/04/12 00:54:38;;;;;;;6.63;1.10;;;14.10;85.60;;;;;;7402476;19;19951;-74
2023/04/12 00:57:04;;;;;;;4.32;1.40;;;14.10;84.50;;;;;;7375426;19;19915;-72
2023/04/12 00:59:30;;;;;;;5.63;1.00;;;14.10;84.60;;;;;;7386535;19;19938;-72
2023/04/12 01:01:58;;;;;;;4.95;0.95;;;14.00;85.10;;;;;;7403986;19;19911;-72
2023/04/12 01:04:25;;;;;;;5.05;1.02;;;14.00;85.40;;;;;;7400339;19;19925;-72
2023/04/12 01:07:00;;;;;;;3.65;1.50;;;14.10;85.30;;;;;;7404245;19;19915;-72
2023/04/12 01:09:57;;;;;;;4.70;1.30;;;14.10;84.90;;;;;;7402075;19;19925;-72
2023/04/12 01:12:53;;;;;;;3.60;1.13;;;14.00;84.10;;;;;;7401125;19;20355;-72
2023/04/12 01:15:23;;;;;;;3.40;1.15;;;14.20;82.60;;;;;;7402456;19;20001;-72
2023/04/12 01:18:07;;;;;;;4.97;1.30;;;14.20;82.50;;;;;;7401082;19;19919;-73
2023/04/12 01:20:56;;;;;;;5.38;1.23;;;14.20;82.40;;;;;;7402271;19;19987;-72
2023/04/12 01:23:56;;;;;;;5.38;1.20;;;14.20;82.20;;;;;;7400922;19;19942;-72
2023/04/12 01:26:40;;;;;;;5.10;1.42;;;14.10;82.30;;;;;;7403852;19;19946;-71
2023/04/12 01:29:18;;;;;;;5.43;1.13;;;14.10;81.60;;;;;;7400683;19;19922;-71
2023/04/12 01:31:57;;;;;;;3.47;1.20;;;14.20;80.00;;;;;;7403438;19;19929;-70
2023/04/12 01:34:27;;;;;;;6.25;1.10;;;14.20;78.50;;;;;;7400995;19;19990;-72
2023/04/12 01:36:56;;;;;;;4.63;0.88;;;14.10;78.00;;;;;;7400987;19;19925;-72
2023/04/12 01:39:22;;;;;;;3.55;0.90;;;14.10;77.30;;;;;;7400561;19;19926;-72
2023/04/12 01:41:48;;;;;;;3.53;0.90;;;14.10;76.80;;;;;;7403329;19;19926;-72
2023/04/12 01:44:17;;;;;;;3.95;1.13;;;14.00;77.30;;;;;;7402897;19;20322;-73
2023/04/12 01:46:46;;;;;;;4.60;1.10;;;14.00;76.80;;;;;;7404074;19;19918;-72
2023/04/12 01:49:12;;;;;;;3.40;0.80;;;14.00;76.00;;;;;;7401379;19;19930;-72
2023/04/12 01:52:00;;;;;;;3.55;1.10;;;14.00;76.20;;;;;;7402745;19;19926;-72
2023/04/12 01:54:37;;;;;;;3.88;1.02;;;13.90;75.40;;;;;;7399368;19;20346;-73
2023/04/12 01:57:06;;;;;;;3.72;0.80;;;13.80;74.70;;;;;;7402005;19;19928;-72
2023/04/12 01:59:39;;;;;;;5.00;0.85;;;13.80;74.70;;;;;;7402685;19;19926;-72
2023/04/12 02:02:06;;;;;;;2.88;1.00;;;13.80;74.70;;;;;;7398857;19;20267;-71
2023/04/12 02:04:34;;;;;;;5.88;0.85;;;13.70;74.90;;;;;;7400972;19;20247;-72
2023/04/12 02:07:01;;;;;;;3.67;0.82;;;13.70;75.60;;;;;;7403800;19;19918;-71
2023/04/12 02:09:28;;;;;;;3.13;0.80;;;13.60;75.70;;;;;;7399564;19;19928;-72
2023/04/12 02:11:53;;;;;;;3.83;0.75;;;13.60;75.60;;;;;;7402190;19;19918;-72
2023/04/12 02:14:19;;;;;;;5.05;0.60;;;13.60;74.70;;;;;;7400859;19;20343;-73
2023/04/12 02:16:45;;;;;;;4.72;1.10;;;13.60;74.50;;;;;;7401018;19;19915;-72
2023/04/12 02:19:11;;;;;;;4.15;0.95;;;13.60;74.50;;;;;;7401552;19;19914;-72
2023/04/12 02:21:41;;;;;;;2.67;0.85;;;13.60;74.60;;;;;;7402392;19;19930;-73
2023/04/12 02:24:08;;;;;;;3.50;0.73;;;13.60;74.20;;;;;;7399931;19;19911;-72
2023/04/12 02:26:35;;;;;;;3.97;0.88;;;13.50;74.60;;;;;;7402046;19;19918;-72
2023/04/12 02:29:02;;;;;;;6.35;1.20;;;13.50;74.90;;;;;;7401564;19;19986;-72
2023/04/12 02:31:30;;;;;;;5.10;1.45;;;13.50;74.70;;;;;;7397906;19;20278;-72
2023/04/12 02:33:56;;;;;;;3.22;1.10;;;13.60;74.10;;;;;;7400987;19;20260;-72
2023/04/12 02:36:22;;;;;;;2.97;0.82;;;13.70;74.20;;;;;;7400434;19;19946;-71
2023/04/12 02:38:50;;;;;;;4.35;1.17;;;13.70;74.30;;;;;;7401284;19;19921;-73
2023/04/12 02:41:17;;;;;;;3.55;0.90;;;13.70;73.60;;;;;;7398789;19;19926;-72
2023/04/12 02:43:44;;;;;;;5.28;0.70;;;13.70;74.20;;;;;;7402329;19;19922;-72
2023/04/12 02:46:12;;;;;;;2.60;0.68;;;13.70;74.40;;;;;;7414243;19;20351;-72
2023/04/12 02:48:38;;;;;;;2.25;1.02;;;13.60;75.30;;;;;;7413497;19;20555;-72
2023/04/12 02:51:04;;;;;;;5.93;1.30;;;13.70;75.90;;;;;;7412210;19;19915;-72
2023/04/12 02:53:29;;;;;;;5.30;1.90;;;13.60;78.60;;;;;;7413355;19;19929;-73
2023/04/12 02:55:56;;;;;;;6.38;2.20;;;13.70;83.90;;;;;;7413428;19;19924;-73
2023/04/12 02:58:23;;;;;;;10.07;2.85;;;13.70;86.60;;;;;;7415544;19;19969;-73
2023/04/12 03:00:49;;;;;;;8.68;2.20;;;13.60;88.70;;;;;;7413873;19;19925;-73
2023/04/12 03:03:16;;;;;;;6.68;2.83;;;13.60;90.10;;;;;;7415338;19;19928;-72
2023/04/12 03:05:46;;;;;;;7.18;2.50;;;13.60;89.60;;;;;;7413929;19;20880;-71
2023/04/12 03:08:12;;;;;;;8.02;2.47;;;13.50;89.30;;;;;;7414663;19;19923;-72
2023/04/12 03:10:38;;;;;;;5.32;2.13;;;13.50;89.70;;;;;;7414703;19;19922;-72
2023/04/12 03:13:04;;;;;;;6.40;1.80;;;13.50;88.90;;;;;;7414489;19;19910;-72
2023/04/12 03:15:30;;;;;;;5.63;1.98;;;13.50;87.50;;;;;;7415822;19;19913;-72
2023/04/12 03:17:56;;;;;;;4.88;2.10;;;13.50;87.80;;;;;;7413551;19;20275;-71
2023/04/12 03:20:26;;;;;;;8.50;2.15;;;13.40;87.90;;;;;;7410884;19;19945;-72
2023/04/12 03:22:52;;;;;;;5.72;1.45;;;13.50;88.30;;;;;;7413152;19;19922;-72
2023/04/12 03:25:18;;;;;;;6.43;1.83;;;13.50;87.60;;;;;;7413988;19;19922;-72
2023/04/12 03:27:44;;;;;;;8.52;1.88;;;13.50;87.30;;;;;;7412287;19;19950;-73
2023/04/12 03:30:10;;;;;;;7.57;1.70;;;13.40;87.30;;;;;;7412084;19;19950;-72
2023/04/12 03:32:40;;;;;;;4.88;1.50;;;13.40;86.90;;;;;;7413833;19;19940;-71
2023/04/12 03:35:07;;;;;;;4.03;1.05;;;13.30;86.30;;;;;;7410205;19;19922;-72
2023/04/12 03:37:33;;;;;;;;;;;13.40;86.00;;;;;;7414307;19;19955;-71
2023/04/12 03:40:00;;;;;;;4.30;1.40;;;13.40;86.10;;;;;;7411188;19;19919;-72
2023/04/12 03:42:27;;;;;;;5.30;1.23;;;13.40;85.20;;;;;;7410273;19;19918;-72
2023/04/12 03:44:53;;;;;;;3.35;1.02;;;13.30;84.20;;;;;;7413258;19;19937;-72
2023/04/12 03:47:19;;;;;;;5.75;1.60;;;13.30;84.50;;;;;;7410851;19;20262;-72
2023/04/12 03:49:46;;;;;;;3.65;0.98;;;13.30;85.30;;;;;;7412140;19;19939;-72
2023/04/12 03:52:12;;;;;;;3.40;1.27;;;13.30;84.80;;;;;;7411210;19;19945;-72
2023/04/12 03:54:38;;;;;;;3.75;1.40;;;13.30;85.30;;;;;;7413203;19;20016;-72
2023/04/12 03:57:04;;;;;;;4.78;1.40;;;13.30;85.50;;;;;;7401632;19;19936;-72
2023/04/12 03:59:31;;;;;;;4.35;1.65;;;13.20;87.40;;;;;;7403804;19;19914;-72
2023/04/12 04:01:57;;;;;;;7.95;2.08;;;13.20;88.70;;;;;;7406098;19;19922;-72
2023/04/12 04:04:23;;;;;;;4.47;2.30;;;13.10;88.90;;;;;;7403806;19;19922;-72
2023/04/12 04:06:49;;;;;;;6.78;2.08;;;13.10;90.50;;;;;;7404130;19;19918;-72
2023/04/12 04:09:15;;;;;;;5.43;2.58;;;13.10;91.10;;;;;;7405070;19;19911;-72
2023/04/12 04:11:41;;;;;;;6.40;2.92;;;13.30;92.10;;;;;;7404320;19;20525;-72
2023/04/12 04:14:07;;;;;;;6.75;2.20;;;13.30;91.80;;;;;;7382187;19;19922;-72
2023/04/12 04:16:33;;;;;;;4.50;1.70;;;13.20;91.20;;;;;;7405563;19;20376;-72
2023/04/12 04:18:59;;;;;;;5.10;1.83;;;13.30;90.40;;;;;;7404205;19;19918;-72
2023/04/12 04:21:25;;;;;;;5.72;1.92;;;13.30;90.20;;;;;;7403718;19;19991;-71
2023/04/12 04:23:51;;;;;;;4.28;1.30;;;13.30;89.50;;;;;;7403486;19;19921;-72
2023/04/12 04:26:17;;;;;;;4.38;1.38;;;13.30;89.30;;;;;;7404449;19;20011;-71
2023/04/12 04:28:44;;;;;;;4.28;1.50;;;13.30;89.40;;;;;;7403823;19;19922;-73
2023/04/12 04:31:16;;;;;;;5.63;1.80;;;13.20;89.20;;;;;;7402807;19;20268;-72
2023/04/12 04:33:41;;;;;;;5.32;1.58;;;13.20;89.70;;;;;;7404976;19;19974;-73
2023/04/12 04:36:08;;;;;;;9.65;2.08;;;13.10;89.70;;;;;;7400686;19;20260;-72
2023/04/12 04:38:35;;;;;;;5.72;2.00;;;13.10;90.00;;;;;;7404174;19;19954;-72
2023/04/12 04:41:01;;;;;;;4.85;1.55;;;13.10;90.00;;;;;;7404308;19;20372;-72
2023/04/12 04:43:30;;;;;;;;;;;13.20;90.10;;;;;;7406680;19;19951;-72
2023/04/12 04:45:57;;;;;;;5.28;2.30;;;13.20;90.30;;;;;;7405262;19;20264;-72
2023/04/12 04:48:23;;;;;;;7.18;2.47;;;13.30;91.40;;;;;;7400621;19;19933;-73
2023/04/12 04:50:50;;;;;;;9.77;3.65;;;13.10;91.60;;;;;;7405652;19;19915;-73
2023/04/12 04:53:18;;;;;;;5.40;2.58;;;13.20;93.10;;;;;;7400412;19;19923;-72
2023/04/12 04:55:43;;;;;;;7.90;3.58;;;13.20;92.80;;;;;;7350499;19;19986;-72
2023/04/12 04:58:10;;;;;;;7.65;3.55;;;13.20;94.60;;;;;;7399200;19;19914;-73
2023/04/12 05:00:37;;;;;;;7.57;4.13;;;13.30;95.10;;;;;;7402654;19;20402;-73
2023/04/12 05:03:03;;;;;;;;;;;13.20;95.40;;;;;;7403982;19;19906;-73
2023/04/12 05:05:29;;;;;;;7.82;3.60;;;13.10;95.30;;;;;;7401972;19;19914;-72
2023/04/12 05:07:57;;;;;;;9.15;3.55;;;13.00;95.60;;;;;;7404264;19;19919;-72
2023/04/12 05:10:23;;;;;;;11.52;3.70;;;13.00;95.90;;;;;;7404714;19;19949;-71
2023/04/12 05:12:49;;;;;;;9.30;4.28;;;13.00;96.10;;;;;;7404516;19;19982;-72
2023/04/12 05:15:15;;;;;;;9.95;4.00;;;13.00;96.40;;;;;;7399972;19;20403;-72
2023/04/12 05:17:41;;;;;;;10.10;4.60;;;12.90;96.60;;;;;;7403024;19;19918;-72
2023/04/12 05:20:09;;;;;;;9.50;4.10;;;12.90;97.10;;;;;;7400959;19;19926;-72
2023/04/12 05:22:35;;;;;;;13.52;4.85;;;12.80;97.10;;;;;;7403908;19;19929;-73
2023/04/12 05:25:01;;;;;;;11.68;5.57;;;12.80;97.60;;;;;;7403084;19;19927;-72
2023/04/12 05:27:28;;;;;;;11.43;5.40;;;12.70;98.10;;;;;;7400300;19;19919;-73
2023/04/12 05:29:56;;;;;;;13.90;5.57;;;12.70;98.30;;;;;;7402360;19;19974;-73
2023/04/12 05:32:23;;;;;;;16.92;5.53;;;12.80;98.50;;;;;;7401013;19;19914;-73
2023/04/12 05:34:49;;;;;;;13.85;6.22;;;12.80;98.80;;;;;;7401818;19;19910;-72
2023/04/12 05:37:15;;;;;;;12.35;6.15;;;12.90;98.90;;;;;;7400922;19;19962;-72
2023/04/12 05:39:40;;;;;;;12.63;6.88;;;12.90;98.90;;;;;;7402533;19;19950;-73
2023/04/12 05:42:06;;;;;;;16.50;7.68;;;13.00;99.00;;;;;;7401053;19;19927;-72
2023/04/12 05:44:35;;;;;;;14.70;6.80;;;13.00;99.00;;;;;;7405348;19;19934;-74
2023/04/12 05:47:02;;;;;;;15.45;6.90;;;13.00;99.10;;;;;;7400268;19;19918;-72
2023/04/12 05:49:30;;;;;;;14.05;6.82;;;13.00;99.10;;;;;;7402166;19;20375;-72
2023/04/12 05:51:56;;;;;;;11.48;5.78;;;13.00;98.90;;;;;;7399766;19;20339;-72
2023/04/12 05:54:22;;;;;;;14.45;6.45;;;13.00;98.50;;;;;;7402026;19;19950;-72
2023/04/12 05:56:47;;;;;;;9.15;5.60;;;13.10;98.30;;;;;;7403203;19;19926;-72
2023/04/12 05:59:13;;;;;;;12.00;6.00;;;13.20;98.10;;;;;;7399462;19;19914;-73
2023/04/12 06:01:41;;;;;;;13.02;5.95;;;13.20;97.80;;;;;;7402778;19;19942;-72
2023/04/12 06:04:07;;;;;;;10.02;4.32;;;13.30;97.60;;;;;;7401241;19;20430;-73
2023/04/12 06:06:33;;;;;;;6.57;2.47;;;13.50;94.10;;;;;;7401232;19;19926;-72
2023/04/12 06:08:59;;;;;;;10.30;2.72;;;13.80;91.80;;;;;;7399673;19;19924;-71
2023/04/12 06:11:26;;;;;;;10.25;3.10;;;14.00;89.70;;;;;;7398017;19;19933;-72
2023/04/12 06:13:52;;;;;;;11.07;3.42;;;14.20;90.00;;;;;;7403684;19;19931;-72
2023/04/12 06:16:18;;;;;;;10.32;4.10;;;14.30;89.90;;;;;;7399435;19;19917;-72
2023/04/12 06:18:44;;;;;;;9.75;4.10;;;14.40;90.80;;;;;;7397434;19;20394;-73
2023/04/12 06:21:10;;;;;;;9.63;4.75;;;14.30;90.70;;;;;;7398644;19;19978;-71
2023/04/12 06:23:35;;;;;;;9.07;4.65;;;14.30;91.10;;;;;;7399731;19;20327;-71
2023/04/12 06:26:01;;;;;;;11.43;5.93;;;14.30;91.50;;;;;;7402696;19;19919;-72
2023/04/12 06:28:27;;;;;;;10.90;4.97;;;14.30;92.00;;;;;;7401688;19;20252;-73
2023/04/12 06:30:54;;;;;;;11.77;5.07;;;14.40;91.20;;;;;;7401507;19;20342;-71
2023/04/12 06:33:22;;;;;;;12.38;4.80;;;14.30;91.50;;;;;;7395095;19;19929;-73
2023/04/12 06:35:49;;;;;;;11.52;4.60;;;14.50;91.60;;;;;;7398126;19;19918;-72
2023/04/12 06:38:15;;;;;;;13.20;5.55;;;14.50;91.70;;;;;;7397432;19;20231;-74
2023/04/12 06:40:41;;;;;;;11.95;6.00;;;14.60;91.90;;;;;;7393219;19;20288;-72
2023/04/12 06:43:07;;;;;;;10.77;5.20;;;14.70;92.20;;;;;;7388600;19;19926;-71
2023/04/12 06:45:33;;;;;;;17.42;6.68;;;14.70;92.20;;;;;;7391312;19;19927;-73
2023/04/12 06:47:58;;;;;;;15.02;6.88;;;14.80;92.50;;;;;;7400203;19;19927;-72
2023/04/12 06:50:25;;;;;;;17.65;6.47;;;14.90;92.70;;;;;;7399451;19;19915;-72
2023/04/12 06:52:51;;;;;;;13.43;7.35;;;14.90;92.70;;;;;;7401444;19;20244;-71
2023/04/12 06:55:17;;;;;;;14.93;6.93;;;15.00;92.60;;;;;;7396253;19;19942;-72
2023/04/12 06:57:46;;;;;;;15.20;6.75;;;15.10;92.50;;;;;;7399723;19;19923;-71
2023/04/12 07:00:12;;;;;;;13.75;6.22;;;15.10;92.30;;;;;;7399589;19;19915;-73
2023/04/12 07:02:38;;;;;;;13.48;6.15;;;15.20;92.10;;;;;;7400941;19;19936;-72
2023/04/12 07:05:05;;;;;;;13.13;6.72;;;15.30;91.90;;;;;;7398072;19;19922;-72
2023/04/12 07:07:31;;;;;;;11.15;4.97;;;15.30;91.50;;;;;;7394469;19;19922;-72
2023/04/12 07:09:57;;;;;;;9.75;5.18;;;15.40;91.30;;;;;;7399816;19;19921;-72
2023/04/12 07:12:23;;;;;;;12.30;3.70;;;15.50;90.70;;;;;;7399052;19;20327;-73
2023/04/12 07:14:48;;;;;;;10.07;3.22;;;15.50;91.60;;;;;;7399932;19;19982;-72
2023/04/12 07:17:14;;;;;;;7.60;3.20;;;15.60;89.80;;;;;;7396876;19;19966;-72
2023/04/12 07:19:40;;;;;;;6.13;3.10;;;15.70;90.20;;;;;;7397562;19;19926;-72
2023/04/12 07:22:07;;;;;;;11.32;3.80;;;15.80;89.50;;;;;;7399389;19;19922;-73
2023/04/12 07:24:32;;;;;;;8.38;3.10;;;15.90;89.10;;;;;;7401543;19;19943;-73
2023/04/12 07:26:58;;;;;;;7.45;2.80;;;15.90;88.10;;;;;;7400865;19;19915;-72
2023/04/12 07:29:25;;;;;;;6.80;2.65;;;16.00;87.30;;;;;;7398848;19;20652;-72
2023/04/12 07:31:51;;;;;;;8.35;3.53;;;16.10;85.80;;;;;;7404887;19;19922;-72
2023/04/12 07:34:17;;;;;;;8.57;2.38;;;16.20;85.90;;;;;;7347379;19;19918;-74
2023/04/12 07:36:43;;;;;;;7.43;3.85;;;16.40;83.30;;;;;;7405086;19;20243;-72
2023/04/12 07:39:13;;;;;;;9.35;3.20;;;16.50;84.70;;;;;;7405813;19;20349;-74
2023/04/12 07:41:45;;;;;;;7.70;3.60;;;16.60;84.30;;;;;;7406213;19;20364;-72
2023/04/12 07:44:10;;;;;;;7.40;3.08;;;16.70;83.30;;;;;;7403119;19;19951;-73
2023/04/12 07:46:37;;;;;;;9.98;3.88;;;16.70;83.00;;;;;;7406253;19;20320;-73
2023/04/12 07:49:03;;;;;;;11.35;3.22;;;16.80;83.30;;;;;;7405159;19;19922;-73
2023/04/12 07:51:29;;;;;;;10.57;3.50;;;16.80;83.70;;;;;;7402699;19;20771;-72
2023/04/12 07:53:55;;;;;;;9.60;3.72;;;16.90;84.20;;;;;;7404613;19;19950;-73
2023/04/12 07:56:21;;;;;;;8.90;4.43;;;16.80;84.70;;;;;;7404845;19;20278;-73
2023/04/12 07:58:47;;;;;;;8.70;4.40;;;16.80;85.00;;;;;;7404718;19;19954;-72
2023/04/12 08:01:14;;;;;;;11.18;4.10;;;16.80;85.20;;;;;;7395563;19;19941;-72
2023/04/12 08:03:40;;;;;;;10.43;4.53;;;16.80;85.60;;;;;;7405676;19;19919;-72
2023/04/12 08:06:06;;;;;;;11.57;4.53;;;16.80;86.10;;;;;;7396967;19;20346;-73
2023/04/12 08:08:32;;;;;;;11.60;6.10;;;16.80;87.00;;;;;;7399629;19;19922;-73
2023/04/12 08:11:01;;;;;;;10.60;6.00;;;16.70;87.90;;;;;;7402127;19;20273;-73
2023/04/12 08:13:27;;;;;;;13.38;6.00;;;16.70;88.20;;;;;;7397689;19;19930;-73
2023/04/12 08:15:54;;;;;;;14.98;6.53;;;16.60;88.70;;;;;;7395839;19;19906;-73
2023/04/12 08:18:20;;;;;;;12.30;6.95;;;16.70;89.30;;;;;;7402996;19;19919;-72
2023/04/12 08:20:48;;;;;;;14.85;6.97;;;16.70;89.50;;;;;;7405356;19;20801;-73
2023/04/12 08:23:14;;;;;;;16.98;7.30;;;16.80;89.60;;;;;;7401580;19;19914;-72
2023/04/12 08:25:40;;;;;;;13.10;6.47;;;16.60;90.10;;;;;;7403439;19;19910;-73
2023/04/12 08:28:07;;;;;;;17.30;8.10;;;16.60;90.20;;;;;;7400746;19;20299;-72
2023/04/12 08:30:33;;;;;;;14.32;7.80;;;16.70;90.10;;;;;;7402236;19;20244;-72
2023/04/12 08:33:02;;;;;;;23.20;7.15;;;16.90;89.20;;;;;;7399352;19;20556;-72
2023/04/12 08:35:28;;;;;;;14.52;7.03;;;17.00;89.00;;;;;;7400798;19;19959;-73
2023/04/12 08:37:54;;;;;;;14.43;5.88;;;18.60;85.80;;;;;;7403918;19;19927;-74
2023/04/12 08:40:20;;;;;;;15.40;6.97;;;19.50;81.40;;;;;;7400909;19;20556;-74
2023/04/12 08:42:46;;;;;;;11.77;6.45;;;19.60;80.80;;;;;;7345907;19;20261;-73
2023/04/12 08:45:13;;;;;;;14.80;6.35;;;19.30;79.70;;;;;;7402977;19;19926;-73
2023/04/12 08:47:41;;;;;;;13.32;5.63;;;19.80;79.20;;;;;;7405085;19;19923;-73
2023/04/12 08:50:08;;;;;;;11.85;5.65;;;20.50;76.60;;;;;;7402487;19;19926;-72
2023/04/12 08:52:36;;;;;;;13.70;5.18;;;21.10;74.40;;;;;;7405445;19;19930;-72
2023/04/12 08:55:03;;;;;;;10.90;6.35;;;21.70;72.90;;;;;;7341305;19;20258;-72
2023/04/12 08:57:31;;;;;;;13.20;5.80;;;22.20;70.40;;;;;;7401909;19;19919;-72
2023/04/12 09:00:03;;;;;;;12.32;5.93;;;23.00;69.40;;;;;;7399932;19;20780;-74
2023/04/12 09:02:29;;;;;;;;;;;21.80;70.20;;;;;;7404368;19;20003;-73
2023/04/12 09:04:55;;;;;;;10.38;4.82;;;22.50;69.30;;;;;;7402005;19;19911;-73
2023/04/12 09:07:22;;;;;;;12.25;5.57;;;22.80;70.00;;;;;;7401961;19;19922;-73
2023/04/12 09:09:50;;;;;;;11.40;5.43;;;23.60;67.10;;;;;;7402537;19;19930;-73
2023/04/12 09:12:19;;;;;;;10.82;5.45;;;22.80;66.80;;;;;;7402195;19;19921;-72
2023/04/12 09:14:45;;;;;;;11.98;4.57;;;23.50;66.20;;;;;;7399584;19;19968;-73
2023/04/12 09:17:27;;;;;;;18.45;5.55;;;24.60;65.20;;;;;;7397886;19;20330;-73
2023/04/12 09:19:56;;;;;;;14.07;5.30;;;23.80;66.20;;;;;;7398701;19;20351;-72
2023/04/12 09:22:35;;;;;;;12.57;5.50;;;23.30;67.20;;;;;;7396527;19;20048;-72
2023/04/12 09:25:01;;;;;;;16.15;5.70;;;22.60;67.90;;;;;;7391920;19;20574;-73
2023/04/12 09:27:28;;;;;;;22.48;5.63;;;23.00;68.20;;;;;;7395163;19;19923;-72
2023/04/12 09:30:10;;;;;;;14.18;5.38;;;24.10;66.10;;;;;;7393824;19;19923;-73
2023/04/12 09:32:36;;;;;;;9.60;5.50;;;23.30;66.20;;;;;;7395903;19;20397;-72
2023/04/12 09:35:04;;;;;;;;;;;22.60;66.70;;;;;;7402037;19;19906;-72
2023/04/12 09:37:30;;;;;;;13.07;5.47;;;23.20;66.90;;;;;;7376307;19;19911;-72
2023/04/12 09:40:04;;;;;;;18.83;6.28;;;22.70;67.30;;;;;;7394822;19;20327;-72
2023/04/12 09:42:32;;;;;;;13.85;5.97;;;22.80;68.10;;;;;;7400771;19;19933;-73
2023/04/12 09:45:00;;;;;;;12.80;6.13;;;21.40;71.10;;;;;;7398336;19;19919;-73
2023/04/12 09:47:39;;;;;;;13.48;5.68;;;21.90;72.10;;;;;;7343053;19;19907;-73
2023/04/12 09:50:07;;;;;;;12.30;5.13;;;23.30;70.30;;;;;;7373662;19;19915;-72
2023/04/12 09:52:37;;;;;;;12.50;5.60;;;23.50;69.90;;;;;;7396702;19;19918;-73
2023/04/12 09:55:08;;;;;;;13.20;5.75;;;22.70;71.10;;;;;;7389473;19;19914;-74
2023/04/12 09:57:38;;;;;;;12.65;5.55;;;22.20;74.00;;;;;;7396800;19;19946;-74
2023/04/12 10:00:16;;;;;;;14.15;5.72;;;22.40;74.50;;;;;;7387154;19;19954;-72
2023/04/12 10:02:43;;;;;;;10.65;5.47;;;22.70;75.70;;;;;;7392076;19;19917;-73
2023/04/12 10:05:18;;;;;;;15.68;5.55;;;22.70;75.50;;;;;;7389530;19;19927;-72
2023/04/12 10:07:48;;;;;;;14.38;6.20;;;23.10;74.90;;;;;;7392656;19;19944;-72
2023/04/12 10:10:18;;;;;;;11.80;6.18;;;23.50;75.50;;;;;;7385407;19;20296;-73
2023/04/12 10:12:46;;;;;;;11.55;5.65;;;23.10;76.10;;;;;;7392217;19;19913;-73
2023/04/12 10:15:14;;;;;;;12.35;5.30;;;22.30;77.50;;;;;;7382166;19;19939;-72
2023/04/12 10:17:44;;;;;;;15.95;6.32;;;22.50;78.10;;;;;;7389617;19;19915;-73
2023/04/12 10:20:11;;;;;;;15.35;6.13;;;21.80;80.40;;;;;;7390706;19;19938;-72
2023/04/12 10:22:42;;;;;;;10.75;5.75;;;21.60;80.50;;;;;;7400103;19;19930;-71
2023/04/12 10:25:22;;;;;;;11.15;5.93;;;21.30;82.00;;;;;;7389965;19;19981;-72
2023/04/12 10:27:48;;;;;;;11.60;5.90;;;20.70;84.50;;;;;;7396718;19;20003;-73
2023/04/12 10:30:17;;;;;;;;;;;20.50;85.50;;;;;;7399614;19;20400;-72
2023/04/12 10:32:43;;;;;;;11.77;6.80;;;20.40;85.80;;;;;;7396742;19;20288;-72
2023/04/12 10:35:10;;;;;;;13.10;5.22;;;20.50;86.40;;;;;;7391998;19;19922;-72
2023/04/12 10:38:01;;;;;;;11.80;5.70;;;20.90;85.20;;;;;;7392460;19;19922;-72
2023/04/12 10:41:05;;;;;;;10.30;4.57;;;21.00;84.50;;;;;;7387945;19;19926;-72
2023/04/12 10:43:31;;;;;;;13.43;6.10;;;21.50;83.90;;;;;;7358837;19;19915;-73
2023/04/12 10:46:02;;;;;;;12.88;6.82;;;21.50;83.90;;;;;;7395866;19;19911;-73
2023/04/12 10:48:35;;;;;;;13.63;8.05;;;21.00;84.90;;;;;;7400526;19;20271;-73
2023/04/12 10:51:29;;;;;;;11.35;6.47;;;20.80;86.30;;;;;;7394315;19;19918;-72
2023/04/12 10:54:07;;;;;;;15.10;7.43;;;20.00;89.00;;;;;;7397772;19;19970;-72
2023/04/12 10:56:38;;;;;;;12.63;8.18;;;20.40;87.80;;;;;;7398124;19;20272;-72
2023/04/12 10:59:05;;;;;;;11.63;6.82;;;20.70;87.90;;;;;;7376507;19;19914;-72
2023/04/12 11:01:39;;;;;;;14.25;7.10;;;20.60;88.50;;;;;;7399127;19;20335;-73
2023/04/12 11:04:11;;;;;;;16.63;6.82;;;21.20;86.60;;;;;;7398386;19;19931;-72
2023/04/12 11:06:49;;;;;;;13.38;6.78;;;21.20;85.30;;;;;;7405965;19;20386;-72
2023/04/12 11:09:30;;;;;;;13.45;6.05;;;21.70;84.30;;;;;;7405196;19;20744;-73
2023/04/12 11:11:57;;;;;;;11.55;6.53;;;22.10;83.80;;;;;;7405590;19;20339;-73
2023/04/12 11:14:28;;;;;;;15.82;6.50;;;20.80;84.30;;;;;;7404385;19;19923;-73
2023/04/12 11:17:15;;;;;;;13.98;6.70;;;21.30;85.00;;;;;;7401197;19;20342;-73
2023/04/12 11:19:59;;;;;;;12.43;6.40;;;21.70;84.20;;;;;;7403658;19;19919;-72
2023/04/12 11:22:31;;;;;;;14.43;7.30;;;21.20;84.60;;;;;;7406367;19;19960;-71
2023/04/12 11:25:01;;;;;;;13.43;5.95;;;21.70;83.60;;;;;;7405806;19;19922;-72
2023/04/12 11:27:28;;;;;;;12.52;5.40;;;21.90;83.20;;;;;;7403291;19;19915;-73
2023/04/12 11:29:56;;;;;;;11.98;7.35;;;22.50;81.40;;;;;;7395021;19;20606;-72
2023/04/12 11:32:25;;;;;;;13.25;6.25;;;22.80;80.30;;;;;;7400776;19;19942;-72
2023/04/12 11:34:54;;;;;;;15.13;5.82;;;22.80;79.90;;;;;;7399255;19;19915;-72
2023/04/12 11:37:21;;;;;;;13.27;6.07;;;22.40;80.30;;;;;;7401074;19;19921;-72
2023/04/12 11:39:50;;;;;;;9.68;5.13;;;22.80;79.00;;;;;;7403182;19;19918;-73
2023/04/12 11:42:19;;;;;;;15.10;6.10;;;23.50;78.40;;;;;;7397657;19;19981;-72
2023/04/12 11:44:46;;;;;;;10.50;5.80;;;23.80;77.80;;;;;;7381873;19;19919;-70
2023/04/12 11:47:18;;;;;;;9.90;5.45;;;23.00;77.10;;;;;;7402410;19;19921;-71
2023/04/12 11:49:54;;;;;;;10.27;6.05;;;23.90;76.80;;;;;;7402711;19;19915;-72
2023/04/12 11:52:26;;;;;;;13.98;5.90;;;23.20;79.10;;;;;;7400637;19;20653;-71
2023/04/12 11:54:55;;;;;;;9.65;5.78;;;24.30;76.80;;;;;;7406099;19;19930;-72
2023/04/12 11:57:21;;;;;;;13.68;6.20;;;24.60;76.30;;;;;;7387317;19;19990;-71
2023/04/12 11:59:48;;;;;;;13.35;5.68;;;24.70;75.60;;;;;;7400490;19;19926;-72
2023/04/12 12:02:16;;;;;;;10.38;5.78;;;24.10;77.30;;;;;;7399166;19;19983;-72
2023/04/12 12:04:46;;;;;;;8.75;5.25;;;24.60;75.30;;;;;;7396475;19;19927;-72
2023/04/12 12:07:13;;;;;;;12.43;4.90;;;24.70;74.80;;;;;;7393839;19;20295;-73
2023/04/12 12:09:42;;;;;;;13.13;5.75;;;25.00;74.80;;;;;;7398549;19;19919;-72
2023/04/12 12:12:10;;;;;;;10.52;6.03;;;24.80;74.50;;;;;;7399422;19;19914;-72
2023/04/12 12:14:36;;;;;;;15.45;6.43;;;24.30;75.10;;;;;;7397276;19;19922;-73
2023/04/12 12:17:11;;;;;;;12.27;5.70;;;24.70;74.70;;;;;;7403003;19;20344;-72
2023/04/12 12:19:39;;;;;;;12.32;5.68;;;25.50;73.70;;;;;;7388065;19;21568;-73
2023/04/12 12:22:22;;;;;;;9.95;4.93;;;25.50;73.50;;;;;;7389409;19;20278;-73
2023/04/12 12:24:58;;;;;;;10.52;4.57;;;25.30;73.60;;;;;;7399923;19;19938;-72
2023/04/12 12:27:36;;;;;;;11.40;4.57;;;24.70;73.70;;;;;;7395488;19;19928;-72
2023/04/12 12:30:03;;;;;;;;;;;25.60;72.00;;;;;;7407770;19;19915;-74
2023/04/12 12:32:38;;;;;;;13.60;4.25;;;25.30;72.20;;;;;;7400893;19;19955;-72
2023/04/12 12:35:14;;;;;;;16.60;5.25;;;25.80;71.80;;;;;;7344457;19;20370;-72
2023/04/12 12:37:52;;;;;;;9.85;4.30;;;26.00;70.50;;;;;;7397196;19;19929;-73
2023/04/12 12:40:27;;;;;;;10.75;4.50;;;26.00;70.40;;;;;;7344946;19;20267;-72
2023/04/12 12:42:55;;;;;;;9.00;3.55;;;25.90;71.60;;;;;;7378565;19;20015;-73
2023/04/12 12:45:23;;;;;;;13.23;4.10;;;25.90;70.10;;;;;;7377423;19;19918;-73
2023/04/12 12:47:57;;;;;;;11.80;3.90;;;26.30;70.90;;;;;;7404377;19;19918;-72
2023/04/12 12:50:28;;;;;;;7.30;2.38;;;26.70;69.80;;;;;;7402036;19;19930;-73